Terminal Aerodrome Forecast
Issued by NWS Charleston, WV

Home | Current Version | Previous Version | Text Only | Print | Product List | Glossary On
Versions: 1 2 3 4 5 6 7 8 9 10 11 12 13 14 15 16 17 18 19 20 21 22 23 24
000
FTUS41 KRLX 222300
TAFPKB
TAF
KPKB 222322Z 2300/2324 VRB03KT P6SM SKC
     FM230500 00000KT 6SM BR SKC
     FM230800 00000KT 1 1/2SM BR SCT001
     FM230900 00000KT 1/2SM FG VV001
     FM231300 00000KT 1SM BR BKN001
     FM231400 00000KT P6SM SKC=

USA.gov is the U.S. government's official web portal to all federal, state and local government web resources and services.